createdAt,value
2023-04-16T00:00:28.990Z,2.10
2023-04-16T00:03:01.643Z,2.10
2023-04-16T00:05:34.392Z,1.45
2023-04-16T00:08:07.042Z,1.80
2023-04-16T00:10:39.706Z,2.08
2023-04-16T00:13:12.175Z,2.67
2023-04-16T00:15:44.777Z,1.75
2023-04-16T00:18:17.301Z,1.75
2023-04-16T00:20:50.954Z,1.40
2023-04-16T00:23:26.479Z,1.45
2023-04-16T00:26:00.345Z,1.65
2023-04-16T00:28:33.038Z,1.30
2023-04-16T00:31:05.704Z,1.60
2023-04-16T00:33:38.254Z,1.90
2023-04-16T00:36:10.730Z,1.88
2023-04-16T00:38:43.358Z,1.63
2023-04-16T00:41:28.296Z,2.40
2023-04-16T00:44:05.179Z,2.30
2023-04-16T00:46:39.597Z,2.90
2023-04-16T00:51:44.990Z,2.75
2023-04-16T00:54:17.731Z,2.90
2023-04-16T00:56:51.393Z,3.20
2023-04-16T00:59:23.933Z,2.35
2023-04-16T01:01:56.730Z,2.30
2023-04-16T01:04:31.072Z,2.50
2023-04-16T01:07:04.016Z,2.10
2023-04-16T01:09:36.708Z,2.10
2023-04-16T01:12:09.281Z,1.83
2023-04-16T01:14:41.910Z,2.03
2023-04-16T01:17:14.602Z,2.53
2023-04-16T01:19:47.210Z,2.28
2023-04-16T01:22:19.687Z,1.77
2023-04-16T01:24:52.210Z,2.00
2023-04-16T01:27:24.684Z,2.10
2023-04-16T01:29:57.322Z,1.67
2023-04-16T01:32:41.770Z,1.95
2023-04-16T01:35:14.344Z,1.27
2023-04-16T01:37:47.001Z,1.50
2023-04-16T01:40:19.972Z,1.83
2023-04-16T01:42:52.653Z,1.88
2023-04-16T01:45:25.875Z,1.60
2023-04-16T01:47:58.589Z,1.27
2023-04-16T01:50:35.059Z,1.25
2023-04-16T01:53:07.712Z,1.52
2023-04-16T01:55:40.358Z,1.60
2023-04-16T01:58:15.024Z,1.60
2023-04-16T02:00:47.728Z,1.50
2023-04-16T02:03:20.722Z,1.40
2023-04-16T02:05:53.486Z,1.50
2023-04-16T02:08:26.095Z,1.48
2023-04-16T02:11:00.224Z,1.80
2023-04-16T02:13:32.765Z,1.65
2023-04-16T02:16:05.757Z,1.77
2023-04-16T02:18:55.558Z,2.28
2023-04-16T02:21:29.478Z,1.73
2023-04-16T02:24:02.063Z,1.45
2023-04-16T02:26:36.344Z,1.65
2023-04-16T02:29:15.159Z,1.50
2023-04-16T02:31:52.073Z,1.67
2023-04-16T02:34:25.908Z,2.25
2023-04-16T02:36:59.235Z,1.55
2023-04-16T02:39:32.114Z,1.20
2023-04-16T02:42:04.723Z,1.25
2023-04-16T02:44:37.303Z,1.70
2023-04-16T02:47:10.042Z,1.88
2023-04-16T02:49:42.599Z,1.60
2023-04-16T02:52:15.745Z,1.55
2023-04-16T02:57:21.207Z,1.75
2023-04-16T02:59:53.997Z,1.58
2023-04-16T03:02:27.661Z,1.60
2023-04-16T03:05:04.267Z,1.55
2023-04-16T03:07:36.832Z,1.35
2023-04-16T03:10:09.860Z,1.77
2023-04-16T03:12:42.377Z,2.13
2023-04-16T03:15:14.934Z,1.55
2023-04-16T03:17:47.529Z,1.35
2023-04-16T03:20:20.186Z,1.35
2023-04-16T03:22:52.994Z,1.73
2023-04-16T03:25:25.673Z,1.23
2023-04-16T03:27:58.305Z,1.40
2023-04-16T03:30:31.052Z,1.33
2023-04-16T03:33:03.657Z,1.70
2023-04-16T03:35:36.633Z,1.88
2023-04-16T03:38:09.258Z,1.48
2023-04-16T03:40:41.843Z,1.55
2023-04-16T03:48:22.633Z,2.17
2023-04-16T03:51:02.824Z,1.17
2023-04-16T03:53:44.269Z,1.50
2023-04-16T03:56:32.129Z,1.33
2023-04-16T03:59:13.263Z,1.42
2023-04-16T04:01:50.219Z,1.45
2023-04-16T04:04:23.677Z,1.45
2023-04-16T04:06:56.265Z,1.20
2023-04-16T04:09:53.310Z,1.40
2023-04-16T04:14:59.098Z,1.15
2023-04-16T04:17:32.907Z,1.50
2023-04-16T04:20:08.033Z,1.20
2023-04-16T04:22:42.086Z,1.17
2023-04-16T04:25:14.846Z,1.60
2023-04-16T04:27:47.547Z,1.48
2023-04-16T04:30:20.147Z,1.20
2023-04-16T04:32:52.713Z,1.40
2023-04-16T04:35:25.503Z,1.35
2023-04-16T04:37:58.680Z,1.30
2023-04-16T04:40:32.925Z,1.30
2023-04-16T04:43:05.517Z,1.42
2023-04-16T04:45:39.476Z,1.88
2023-04-16T04:48:12.476Z,1.80
2023-04-16T04:50:46.481Z,1.70
2023-04-16T04:53:19.848Z,1.50
2023-04-16T04:55:54.225Z,1.73
2023-04-16T04:58:30.077Z,1.27
2023-04-16T05:01:02.775Z,1.60
2023-04-16T05:03:35.484Z,1.63
2023-04-16T05:06:08.282Z,1.77
2023-04-16T05:08:41.048Z,1.60
2023-04-16T05:11:13.498Z,2.20
2023-04-16T05:13:46.059Z,1.85
2023-04-16T05:16:18.696Z,1.80
2023-04-16T05:18:51.349Z,1.80
2023-04-16T05:21:24.070Z,2.28
2023-04-16T05:23:56.593Z,2.67
2023-04-16T05:26:29.153Z,2.33
2023-04-16T05:29:01.770Z,2.10
2023-04-16T05:31:35.636Z,2.17
2023-04-16T05:34:08.234Z,3.47
2023-04-16T05:36:40.776Z,2.83
2023-04-16T05:39:13.351Z,2.20
2023-04-16T05:41:45.970Z,1.90
2023-04-16T05:44:18.454Z,1.75
2023-04-16T05:46:51.559Z,2.15
2023-04-16T05:49:24.155Z,1.73
2023-04-16T05:51:56.734Z,1.42
2023-04-16T05:54:30.666Z,1.35
2023-04-16T05:57:04.038Z,1.20
2023-04-16T06:02:09.226Z,1.17
2023-04-16T06:04:41.951Z,1.25
2023-04-16T06:07:14.658Z,1.42
2023-04-16T06:09:47.176Z,1.30
2023-04-16T06:12:19.774Z,1.00
2023-04-16T06:14:52.374Z,0.95
2023-04-16T06:17:24.961Z,1.08
2023-04-16T06:19:57.494Z,0.98
2023-04-16T06:22:30.265Z,0.95
2023-04-16T06:25:02.983Z,0.60
2023-04-16T06:27:35.640Z,0.80
2023-04-16T06:30:15.494Z,0.70
2023-04-16T06:32:48.275Z,0.73
2023-04-16T06:35:20.935Z,0.70
2023-04-16T06:37:53.489Z,0.80
2023-04-16T06:40:26.377Z,0.70
2023-04-16T06:42:58.995Z,0.95
2023-04-16T06:45:31.949Z,0.85
2023-04-16T06:48:05.488Z,1.00
2023-04-16T06:50:38.044Z,1.00
2023-04-16T06:53:10.754Z,1.05
2023-04-16T06:55:43.359Z,0.80
2023-04-16T06:58:15.914Z,1.10
2023-04-16T07:00:48.648Z,1.30
2023-04-16T07:03:21.387Z,1.40
2023-04-16T07:05:54.083Z,1.25
2023-04-16T07:08:26.685Z,1.20
2023-04-16T07:11:24.272Z,1.20
2023-04-16T07:13:57.998Z,1.38
2023-04-16T07:16:30.527Z,1.35
2023-04-16T07:19:03.164Z,1.10
2023-04-16T07:21:35.803Z,1.30
2023-04-16T07:24:08.354Z,1.35
2023-04-16T07:26:41.309Z,1.35
2023-04-16T07:29:13.882Z,1.30
2023-04-16T07:31:46.707Z,1.23
2023-04-16T07:34:19.380Z,1.15
2023-04-16T07:36:51.906Z,1.67
2023-04-16T07:39:24.607Z,1.25
2023-04-16T07:41:57.126Z,1.42
2023-04-16T07:44:30.253Z,1.00
2023-04-16T07:47:04.196Z,0.85
2023-04-16T07:49:38.096Z,1.00
2023-04-16T07:52:10.797Z,0.90
2023-04-16T07:54:43.381Z,0.85
2023-04-16T07:57:16.786Z,1.05
2023-04-16T07:59:51.922Z,0.90
2023-04-16T08:02:24.614Z,0.90
2023-04-16T08:04:57.455Z,0.90
2023-04-16T08:07:30.423Z,0.93
2023-04-16T08:10:03.094Z,1.13
2023-04-16T08:12:36.068Z,1.00
2023-04-16T08:15:09.037Z,1.10
2023-04-16T08:17:41.689Z,1.10
2023-04-16T08:20:17.607Z,0.85
2023-04-16T08:22:53.387Z,1.10
2023-04-16T08:25:26.107Z,1.20
2023-04-16T08:27:58.637Z,1.15
2023-04-16T08:30:31.330Z,1.17
2023-04-16T08:33:06.558Z,1.13
2023-04-16T08:35:39.173Z,0.90
2023-04-16T08:38:11.762Z,1.10
2023-04-16T08:40:45.508Z,0.80
2023-04-16T08:43:19.607Z,0.82
2023-04-16T08:45:56.735Z,0.80
2023-04-16T08:48:34.405Z,0.93
2023-04-16T08:51:10.209Z,0.70
2023-04-16T08:53:57.761Z,0.88
2023-04-16T08:56:36.110Z,1.00
2023-04-16T08:59:10.614Z,1.15
2023-04-16T09:01:43.990Z,0.70
2023-04-16T09:06:50.148Z,1.53
2023-04-16T09:09:23.754Z,0.90
2023-04-16T09:11:56.836Z,0.98
2023-04-16T09:17:02.822Z,0.88
2023-04-16T09:19:35.800Z,0.80
2023-04-16T09:22:08.460Z,1.20
2023-04-16T09:24:42.159Z,1.00
2023-04-16T09:27:14.702Z,0.90
2023-04-16T09:29:47.566Z,1.10
2023-04-16T09:32:27.489Z,1.35
2023-04-16T09:35:02.729Z,0.70
2023-04-16T09:37:36.827Z,1.10
2023-04-16T09:40:09.960Z,1.08
2023-04-16T09:45:14.929Z,1.00
2023-04-16T09:47:47.567Z,1.08
2023-04-16T09:50:21.312Z,1.05
2023-04-16T09:53:05.033Z,1.38
2023-04-16T09:58:18.576Z,1.02
2023-04-16T10:00:58.214Z,1.00
2023-04-16T10:03:32.710Z,1.75
2023-04-16T10:06:16.136Z,1.38
2023-04-16T10:08:58.951Z,1.40
2023-04-16T10:11:31.704Z,1.60
2023-04-16T10:14:04.355Z,1.42
2023-04-16T10:16:37.363Z,1.42
2023-04-16T10:19:10.285Z,1.35
2023-04-16T10:21:43.559Z,1.25
2023-04-16T10:24:18.327Z,1.10
2023-04-16T10:26:55.710Z,1.27
2023-04-16T10:29:32.839Z,1.05
2023-04-16T10:32:07.578Z,1.27
2023-04-16T10:34:40.866Z,1.30
2023-04-16T10:37:13.495Z,1.42
2023-04-16T10:39:50.100Z,1.63
2023-04-16T10:42:22.774Z,1.23
2023-04-16T10:45:00.874Z,1.33
2023-04-16T10:47:40.151Z,1.30
2023-04-16T10:50:18.754Z,2.20
2023-04-16T10:53:40.401Z,1.63
2023-04-16T10:56:13.345Z,1.40
2023-04-16T10:58:46.149Z,1.98
2023-04-16T11:01:19.256Z,1.23
2023-04-16T11:06:26.896Z,1.30
2023-04-16T11:08:59.455Z,1.98
2023-04-16T11:11:39.790Z,1.60
2023-04-16T11:14:13.083Z,1.15
2023-04-16T11:16:45.935Z,1.23
2023-04-16T11:19:18.501Z,1.60
2023-04-16T11:21:53.845Z,1.50
2023-04-16T11:24:32.687Z,1.60
2023-04-16T11:27:05.451Z,1.35
2023-04-16T11:29:37.957Z,1.15
2023-04-16T11:32:10.867Z,1.20
2023-04-16T11:34:47.859Z,1.85
2023-04-16T11:37:39.274Z,1.02
2023-04-16T11:40:12.736Z,1.23
2023-04-16T11:42:45.274Z,1.20
2023-04-16T11:45:19.670Z,1.35
2023-04-16T11:47:55.566Z,1.23
2023-04-16T11:50:29.223Z,1.05
2023-04-16T11:53:06.685Z,1.20
2023-04-16T11:55:45.903Z,1.30
2023-04-16T11:58:19.456Z,1.90
2023-04-16T12:00:57.061Z,1.77
2023-04-16T12:03:47.151Z,1.70
2023-04-16T12:06:19.878Z,1.30
2023-04-16T12:08:52.370Z,1.50
2023-04-16T12:11:41.123Z,1.30
2023-04-16T12:14:13.961Z,1.77
2023-04-16T12:16:46.571Z,1.58
2023-04-16T12:19:19.184Z,1.10
2023-04-16T12:21:51.762Z,1.17
2023-04-16T12:24:27.669Z,0.95
2023-04-16T12:27:03.418Z,1.23
2023-04-16T12:29:36.118Z,0.95
2023-04-16T12:32:23.575Z,1.10
2023-04-16T12:34:56.176Z,1.20
2023-04-16T12:37:28.703Z,1.75
2023-04-16T12:40:01.228Z,0.90
2023-04-16T12:42:37.437Z,1.60
2023-04-16T12:45:09.938Z,1.15
2023-04-16T12:47:42.541Z,1.00
2023-04-16T12:50:15.072Z,1.50
2023-04-16T12:52:47.679Z,1.85
2023-04-16T12:55:20.277Z,1.02
2023-04-16T12:57:53.340Z,1.25
2023-04-16T13:02:58.515Z,1.20
2023-04-16T13:05:31.140Z,1.13
2023-04-16T13:08:03.930Z,1.20
2023-04-16T13:10:36.433Z,1.08
2023-04-16T13:13:09.062Z,1.10
2023-04-16T13:15:41.594Z,1.05
2023-04-16T13:18:14.161Z,0.88
2023-04-16T13:20:46.620Z,0.95
2023-04-16T13:23:19.141Z,0.82
2023-04-16T13:25:54.947Z,0.90
2023-04-16T13:28:27.455Z,0.90
2023-04-16T13:31:00.306Z,1.00
2023-04-16T13:33:34.501Z,0.93
2023-04-16T13:36:07.339Z,1.40
2023-04-16T13:38:40.026Z,1.05
2023-04-16T13:41:12.535Z,1.10
2023-04-16T13:43:45.023Z,1.27
2023-04-16T13:46:19.107Z,0.93
2023-04-16T13:48:51.590Z,1.55
2023-04-16T13:51:24.231Z,1.13
2023-04-16T13:53:56.704Z,1.00
2023-04-16T13:56:29.462Z,0.98
2023-04-16T13:59:02.076Z,1.00
2023-04-16T14:01:34.826Z,0.80
2023-04-16T14:04:07.650Z,1.10
2023-04-16T14:06:40.447Z,0.88
2023-04-16T14:09:13.255Z,1.00
2023-04-16T14:11:45.873Z,0.90
2023-04-16T14:14:18.505Z,1.05
2023-04-16T14:16:51.183Z,0.90
2023-04-16T14:19:23.744Z,0.73
2023-04-16T14:21:56.275Z,0.60
2023-04-16T14:24:28.702Z,0.77
2023-04-16T14:27:01.308Z,0.90
2023-04-16T14:29:33.852Z,0.68
2023-04-16T14:32:06.950Z,0.90
2023-04-16T14:34:39.423Z,1.30
2023-04-16T14:37:12.038Z,0.70
2023-04-16T14:39:44.615Z,1.30
2023-04-16T14:42:17.131Z,1.38
2023-04-16T14:44:49.709Z,1.13
2023-04-16T14:47:22.508Z,1.27
2023-04-16T14:49:55.088Z,1.60
2023-04-16T14:52:27.913Z,1.23
2023-04-16T14:55:00.669Z,1.30
2023-04-16T14:57:33.811Z,1.50
2023-04-16T15:02:43.678Z,1.13
2023-04-16T15:05:17.296Z,0.88
2023-04-16T15:07:49.828Z,1.20
2023-04-16T15:10:22.375Z,1.20
2023-04-16T15:12:54.925Z,2.22
2023-04-16T15:15:27.483Z,1.73
2023-04-16T15:18:00.612Z,0.98
2023-04-16T15:23:06.137Z,1.30
2023-04-16T15:25:38.683Z,1.10
2023-04-16T15:28:11.133Z,1.00
2023-04-16T15:30:44.414Z,1.08
2023-04-16T15:33:17.029Z,1.23
2023-04-16T15:35:51.717Z,1.00
2023-04-16T15:38:24.272Z,1.58
2023-04-16T15:41:00.882Z,1.15
2023-04-16T15:43:33.368Z,1.58
2023-04-16T15:46:05.993Z,0.90
2023-04-16T15:48:38.560Z,1.08
2023-04-16T15:51:11.923Z,1.58
2023-04-16T15:53:45.490Z,1.08
2023-04-16T15:56:18.134Z,0.95
2023-04-16T15:58:50.629Z,1.52
2023-04-16T16:01:23.393Z,1.40
2023-04-16T16:03:56.179Z,1.25
2023-04-16T16:06:28.986Z,1.10
2023-04-16T16:09:02.466Z,1.20
2023-04-16T16:11:41.285Z,1.25
2023-04-16T16:14:18.704Z,1.10
2023-04-16T16:16:51.714Z,1.13
2023-04-16T16:19:24.211Z,1.15
2023-04-16T16:21:59.790Z,1.15
2023-04-16T16:24:32.515Z,1.05
2023-04-16T16:27:05.721Z,1.25
2023-04-16T16:32:11.434Z,1.48
2023-04-16T16:34:43.948Z,1.42
2023-04-16T16:37:16.571Z,1.58
2023-04-16T16:39:49.224Z,1.92
2023-04-16T16:42:21.884Z,1.80
2023-04-16T16:44:56.031Z,1.48
2023-04-16T16:47:30.237Z,1.00
2023-04-16T16:50:03.270Z,0.80
2023-04-16T16:52:36.041Z,1.30
2023-04-16T16:55:11.314Z,1.20
2023-04-16T16:57:43.873Z,1.30
2023-04-16T17:00:17.170Z,1.52
2023-04-16T17:02:51.468Z,1.50
2023-04-16T17:05:24.125Z,1.33
2023-04-16T17:07:56.666Z,1.70
2023-04-16T17:10:29.757Z,1.50
2023-04-16T17:13:02.534Z,1.42
2023-04-16T17:15:35.046Z,1.48
2023-04-16T17:18:07.590Z,1.30
2023-04-16T17:20:40.302Z,1.30
2023-04-16T17:23:12.913Z,1.35
2023-04-16T17:25:45.798Z,1.55
2023-04-16T17:28:18.395Z,1.17
2023-04-16T17:30:56.382Z,1.60
2023-04-16T17:33:28.873Z,1.10
2023-04-16T17:36:01.554Z,1.40
2023-04-16T17:38:34.868Z,1.35
2023-04-16T17:41:07.361Z,1.40
2023-04-16T17:43:39.836Z,1.20
2023-04-16T17:46:12.400Z,1.25
2023-04-16T17:48:45.283Z,1.42
2023-04-16T17:51:17.827Z,1.30
2023-04-16T17:53:51.058Z,1.63
2023-04-16T17:58:55.938Z,1.20
2023-04-16T18:01:28.701Z,1.33
2023-04-16T18:04:01.552Z,2.05
2023-04-16T18:06:34.334Z,1.48
2023-04-16T18:09:07.252Z,1.48
2023-04-16T18:11:40.034Z,1.88
2023-04-16T18:14:16.892Z,1.33
2023-04-16T18:16:49.944Z,1.00
2023-04-16T18:19:22.432Z,0.90
2023-04-16T18:21:55.658Z,0.75
2023-04-16T18:27:01.732Z,1.13
2023-04-16T18:32:09.918Z,1.10
2023-04-16T18:34:44.450Z,1.20
2023-04-16T18:37:17.650Z,1.30
2023-04-16T18:39:50.181Z,1.00
2023-04-16T18:42:23.778Z,1.15
2023-04-16T18:44:56.497Z,1.38
2023-04-16T18:47:28.998Z,1.45
2023-04-16T18:50:02.059Z,1.25
2023-04-16T18:52:34.593Z,1.20
2023-04-16T18:55:07.617Z,1.10
2023-04-16T18:57:40.515Z,1.30
2023-04-16T19:00:13.639Z,2.00
2023-04-16T19:02:46.455Z,1.83
2023-04-16T19:05:20.592Z,1.60
2023-04-16T19:07:53.172Z,1.50
2023-04-16T19:10:28.864Z,1.45
2023-04-16T19:13:05.632Z,1.60
2023-04-16T19:15:38.273Z,1.33
2023-04-16T19:18:10.821Z,1.45
2023-04-16T19:20:43.405Z,1.98
2023-04-16T19:23:16.092Z,1.90
2023-04-16T19:25:49.102Z,1.25
2023-04-16T19:28:21.747Z,1.40
2023-04-16T19:30:54.401Z,1.40
2023-04-16T19:33:26.883Z,1.48
2023-04-16T19:36:00.433Z,1.40
2023-04-16T19:38:33.056Z,1.70
2023-04-16T19:41:05.612Z,1.85
2023-04-16T19:43:38.201Z,1.52
2023-04-16T19:46:10.959Z,1.92
2023-04-16T19:48:43.536Z,2.20
2023-04-16T19:51:16.201Z,2.28
2023-04-16T19:53:48.735Z,1.95
2023-04-16T19:56:21.376Z,1.63
2023-04-16T19:58:53.973Z,1.80
2023-04-16T20:01:26.635Z,1.77
2023-04-16T20:03:59.257Z,1.98
2023-04-16T20:06:31.995Z,1.35
2023-04-16T20:09:05.191Z,1.45
2023-04-16T20:11:37.659Z,1.65
2023-04-16T20:14:10.200Z,1.25
2023-04-16T20:16:43.931Z,1.40
2023-04-16T20:19:18.643Z,1.40
2023-04-16T20:21:51.154Z,1.48
2023-04-16T20:24:24.209Z,1.17
2023-04-16T20:26:56.852Z,1.30
2023-04-16T20:29:29.308Z,1.33
2023-04-16T20:32:01.909Z,1.10
2023-04-16T20:34:34.610Z,1.10
2023-04-16T20:37:07.149Z,1.00
2023-04-16T20:39:40.282Z,0.88
2023-04-16T20:44:50.756Z,0.80
2023-04-16T20:47:23.267Z,0.90
2023-04-16T20:49:55.899Z,0.98
2023-04-16T20:52:28.375Z,1.00
2023-04-16T20:55:00.948Z,1.25
2023-04-16T20:57:33.368Z,1.30
2023-04-16T21:00:09.751Z,1.00
2023-04-16T21:02:42.361Z,0.90
2023-04-16T21:05:15.058Z,0.90
2023-04-16T21:07:47.536Z,1.13
2023-04-16T21:10:20.501Z,0.80
2023-04-16T21:12:53.075Z,1.33
2023-04-16T21:15:25.688Z,1.00
2023-04-16T21:17:58.171Z,0.88
2023-04-16T21:20:30.804Z,0.93
2023-04-16T21:23:04.718Z,0.80
2023-04-16T21:25:37.312Z,1.00
2023-04-16T21:28:09.825Z,0.93
2023-04-16T21:30:42.412Z,0.88
2023-04-16T21:33:19.675Z,0.80
2023-04-16T21:35:57.522Z,1.13
2023-04-16T21:38:36.592Z,0.63
2023-04-16T21:41:09.223Z,0.73
2023-04-16T21:43:41.637Z,1.15
2023-04-16T21:46:14.247Z,0.88
2023-04-16T21:48:48.645Z,1.00
2023-04-16T21:51:29.318Z,0.90
2023-04-16T21:54:01.994Z,0.80
2023-04-16T21:56:34.543Z,1.20
2023-04-16T21:59:07.056Z,0.75
2023-04-16T22:01:39.590Z,1.08
2023-04-16T22:04:12.485Z,0.70
2023-04-16T22:06:46.483Z,0.70
2023-04-16T22:09:18.929Z,0.80
2023-04-16T22:11:52.725Z,0.80
2023-04-16T22:14:26.067Z,0.60
2023-04-16T22:16:58.950Z,0.80
2023-04-16T22:19:31.949Z,0.50
2023-04-16T22:22:04.508Z,0.70
2023-04-16T22:24:37.005Z,0.70
2023-04-16T22:27:09.603Z,0.98
2023-04-16T22:29:42.106Z,0.70
2023-04-16T22:32:14.731Z,0.50
2023-04-16T22:34:47.196Z,0.82
2023-04-16T22:37:19.756Z,0.60
2023-04-16T22:39:52.192Z,0.60
2023-04-16T22:42:24.870Z,0.60
2023-04-16T22:44:57.450Z,0.60
2023-04-16T22:47:30.081Z,0.85
2023-04-16T22:50:03.566Z,0.60
2023-04-16T22:52:36.198Z,0.60
2023-04-16T22:55:09.160Z,0.70
2023-04-16T22:57:42.113Z,0.75
2023-04-16T23:00:16.888Z,0.70
2023-04-16T23:02:49.496Z,0.63
2023-04-16T23:05:22.265Z,0.80
2023-04-16T23:07:54.758Z,0.80
2023-04-16T23:10:28.107Z,0.73
2023-04-16T23:15:33.595Z,0.60
2023-04-16T23:18:06.294Z,0.75
2023-04-16T23:20:38.993Z,0.80
2023-04-16T23:23:11.423Z,1.02
2023-04-16T23:25:44.046Z,0.80
2023-04-16T23:28:16.725Z,0.98
2023-04-16T23:30:53.217Z,0.80
2023-04-16T23:33:25.768Z,0.47
2023-04-16T23:35:58.294Z,0.87
2023-04-16T23:38:31.091Z,0.70
2023-04-16T23:41:03.590Z,0.90
2023-04-16T23:43:36.687Z,0.90
2023-04-16T23:46:09.207Z,0.70
2023-04-16T23:48:41.852Z,0.80
2023-04-16T23:51:14.430Z,0.73
2023-04-16T23:53:46.979Z,0.70
2023-04-16T23:56:19.553Z,0.80
2023-04-16T23:58:52.204Z,0.93
